Time,TemperatureF,DewpointF,PressureIn,WindDirection,WindDirectionDegrees,WindSpeedMPH,WindSpeedGustMPH,Humidity,HourlyPrecipIn,Conditions,Clouds,dailyrainin,SoftwareType,DateUTC
2013-01-08 00:14:00,14.2,12.0,30.37,WSW,247,0.0,-999.0,90,-99.99,,,0.00,weatherlink.com 1.10,2013-01-08 05:14:00,
2013-01-08 00:29:00,13.8,11.0,30.36,WSW,247,0.0,-999.0,90,-99.99,,,0.00,weatherlink.com 1.10,2013-01-08 05:29:00,
2013-01-08 00:44:00,13.4,11.0,30.36,WSW,247,0.0,-999.0,90,-99.99,,,0.00,weatherlink.com 1.10,2013-01-08 05:44:00,
2013-01-08 00:59:00,13.2,11.0,30.36,WSW,247,0.0,-999.0,90,-99.99,,,0.00,weatherlink.com 1.10,2013-01-08 05:59:00,
2013-01-08 01:14:00,12.8,11.0,30.36,WSW,247,0.0,-999.0,90,-99.99,,,0.00,weatherlink.com 1.10,2013-01-08 06:14:00,
2013-01-08 01:29:00,12.4,10.0,30.37,WSW,246,0.0,-999.0,90,-99.99,,,0.00,weatherlink.com 1.10,2013-01-08 06:29:00,
2013-01-08 01:48:00,12.1,10.0,30.36,WSW,246,0.0,-999.0,90,-99.99,,,0.00,weatherlink.com 1.10,2013-01-08 06:48:00,
2013-01-08 01:59:00,12.0,10.0,30.37,WSW,246,0.0,-999.0,90,-99.99,,,0.00,weatherlink.com 1.10,2013-01-08 06:59:00,
2013-01-08 02:14:00,11.8,10.0,30.37,WSW,246,0.0,-999.0,90,-99.99,,,0.00,weatherlink.com 1.10,2013-01-08 07:14:00,
2013-01-08 02:29:00,11.7,9.0,30.36,WSW,248,0.0,-999.0,90,-99.99,,,0.00,weatherlink.com 1.10,2013-01-08 07:29:00,
2013-01-08 02:44:00,11.7,9.0,30.36,WSW,248,0.0,-999.0,90,-99.99,,,0.00,weatherlink.com 1.10,2013-01-08 07:44:00,
2013-01-08 02:59:00,11.6,9.0,30.35,WSW,246,0.0,-999.0,90,-99.99,,,0.00,weatherlink.com 1.10,2013-01-08 07:59:00,
2013-01-08 03:14:00,11.4,9.0,30.35,WSW,247,0.0,-999.0,90,-99.99,,,0.00,weatherlink.com 1.10,2013-01-08 08:14:00,
2013-01-08 03:29:00,11.0,8.0,30.34,WSW,248,0.0,-999.0,89,-99.99,,,0.00,weatherlink.com 1.10,2013-01-08 08:29:00,
2013-01-08 03:44:00,10.8,8.0,30.34,WSW,248,0.0,-999.0,89,-99.99,,,0.00,weatherlink.com 1.10,2013-01-08 08:44:00,
2013-01-08 03:59:00,10.8,9.0,30.34,WSW,247,0.0,-999.0,90,-99.99,,,0.00,weatherlink.com 1.10,2013-01-08 08:59:00,
2013-01-08 04:14:00,10.5,8.0,30.34,WSW,247,0.0,-999.0,89,-99.99,,,0.00,weatherlink.com 1.10,2013-01-08 09:14:00,
2013-01-08 04:29:00,10.2,8.0,30.35,WSW,248,0.0,-999.0,89,-99.99,,,0.00,weatherlink.com 1.10,2013-01-08 09:29:00,
2013-01-08 04:44:00,10.0,7.0,30.34,WSW,248,0.0,-999.0,89,-99.99,,,0.00,weatherlink.com 1.10,2013-01-08 09:44:00,
2013-01-08 04:59:00,10.1,8.0,30.34,WSW,247,0.0,-999.0,90,-99.99,,,0.00,weatherlink.com 1.10,2013-01-08 09:59:00,
2013-01-08 05:14:00,9.8,7.0,30.34,WSW,248,0.0,-999.0,89,-99.99,,,0.00,weatherlink.com 1.10,2013-01-08 10:14:00,
2013-01-08 05:29:00,9.9,8.0,30.34,WSW,246,0.0,-999.0,90,-99.99,,,0.00,weatherlink.com 1.10,2013-01-08 10:29:00,
2013-01-08 05:44:00,9.6,7.0,30.35,WSW,246,0.0,-999.0,89,-99.99,,,0.00,weatherlink.com 1.10,2013-01-08 10:44:00,
2013-01-08 05:59:00,9.4,7.0,30.36,WSW,246,0.0,-999.0,89,-99.99,,,0.00,weatherlink.com 1.10,2013-01-08 10:59:00,
2013-01-08 06:14:00,9.1,7.0,30.36,WSW,247,0.0,-999.0,89,-99.99,,,0.00,weatherlink.com 1.10,2013-01-08 11:14:00,
2013-01-08 06:29:00,8.7,6.0,30.37,WSW,247,0.0,-999.0,88,-99.99,,,0.00,weatherlink.com 1.10,2013-01-08 11:29:00,
2013-01-08 06:44:00,8.5,6.0,30.38,WSW,246,0.0,-999.0,89,-99.99,,,0.00,weatherlink.com 1.10,2013-01-08 11:44:00,
2013-01-08 06:59:00,8.3,6.0,30.38,WSW,247,0.0,-999.0,89,-99.99,,,0.00,weatherlink.com 1.10,2013-01-08 11:59:00,
2013-01-08 07:14:00,8.3,6.0,30.39,WSW,247,0.0,-999.0,89,-99.99,,,0.00,weatherlink.com 1.10,2013-01-08 12:14:00,
2013-01-08 07:29:00,8.3,6.0,30.39,WSW,247,0.0,-999.0,89,-99.99,,,0.00,weatherlink.com 1.10,2013-01-08 12:29:00,
2013-01-08 07:44:00,8.4,6.0,30.39,WSW,248,0.0,-999.0,89,-99.99,,,0.00,weatherlink.com 1.10,2013-01-08 12:44:00,
2013-01-08 07:59:00,8.8,7.0,30.40,WSW,248,0.0,-999.0,90,-99.99,,,0.00,weatherlink.com 1.10,2013-01-08 12:59:00,
2013-01-08 08:14:00,9.3,7.0,30.41,WSW,247,0.0,-999.0,90,-99.99,,,0.00,weatherlink.com 1.10,2013-01-08 13:14:00,
2013-01-08 08:29:00,10.2,8.0,30.41,WSW,247,0.0,-999.0,91,-99.99,,,0.00,weatherlink.com 1.10,2013-01-08 13:29:00,
2013-01-08 08:44:00,11.4,9.0,30.41,WSW,246,0.0,-999.0,91,-99.99,,,0.00,weatherlink.com 1.10,2013-01-08 13:44:00,
2013-01-08 08:59:00,12.8,11.0,30.41,WSW,246,0.0,-999.0,92,-99.99,,,0.00,weatherlink.com 1.10,2013-01-08 13:59:00,
2013-01-08 09:14:00,15.7,14.0,30.40,SW,229,0.0,-999.0,93,-99.99,,,0.00,weatherlink.com 1.10,2013-01-08 14:14:00,
2013-01-08 09:30:00,17.8,16.0,30.41,SW,228,0.0,-999.0,93,-99.99,,,0.00,weatherlink.com 1.10,2013-01-08 14:30:00,
2013-01-08 09:45:00,19.6,18.0,30.41,SW,227,0.0,-999.0,92,-99.99,,,0.00,weatherlink.com 1.10,2013-01-08 14:45:00,
2013-01-08 10:00:00,20.9,19.0,30.41,SW,229,0.0,-999.0,91,-99.99,,,0.00,weatherlink.com 1.10,2013-01-08 15:00:00,
2013-01-08 10:15:00,22.0,20.0,30.41,SW,229,0.0,-999.0,90,-99.99,,,0.00,weatherlink.com 1.10,2013-01-08 15:15:00,
2013-01-08 10:30:00,23.1,20.0,30.40,SW,227,0.0,-999.0,89,-99.99,,,0.00,weatherlink.com 1.10,2013-01-08 15:30:00,
2013-01-08 10:45:00,25.4,22.0,30.41,SW,229,0.0,-999.0,87,-99.99,,,0.00,weatherlink.com 1.10,2013-01-08 15:45:00,
2013-01-08 11:00:00,26.5,22.0,30.40,SW,228,0.0,-999.0,83,-99.99,,,0.00,weatherlink.com 1.10,2013-01-08 16:00:00,
2013-01-08 11:15:00,27.9,23.0,30.39,SW,229,0.0,-999.0,83,-99.99,,,0.00,weatherlink.com 1.10,2013-01-08 16:15:00,
2013-01-08 11:30:00,28.8,23.0,30.39,SW,228,0.0,-999.0,80,-99.99,,,0.00,weatherlink.com 1.10,2013-01-08 16:30:00,
2013-01-08 12:00:00,31.2,25.0,30.38,SW,229,0.0,-999.0,77,-99.99,,,0.00,weatherlink.com 1.10,2013-01-08 17:00:00,
2013-01-08 12:15:00,32.2,26.0,30.37,SW,229,0.0,-999.0,77,-99.99,,,0.00,weatherlink.com 1.10,2013-01-08 17:15:00,
2013-01-08 12:30:00,33.3,26.0,30.36,SW,227,0.0,-999.0,75,-99.99,,,0.00,weatherlink.com 1.10,2013-01-08 17:30:00,
2013-01-08 12:45:00,35.0,27.0,30.36,SW,226,0.0,-999.0,72,-99.99,,,0.00,weatherlink.com 1.10,2013-01-08 17:45:00,
2013-01-08 13:00:00,36.2,28.0,30.36,SW,227,0.0,-999.0,71,-99.99,,,0.00,weatherlink.com 1.10,2013-01-08 18:00:00,
2013-01-08 13:15:00,36.9,28.0,30.36,SW,226,0.0,-999.0,70,-99.99,,,0.00,weatherlink.com 1.10,2013-01-08 18:15:00,
2013-01-08 13:31:00,38.0,29.0,30.36,East,99,0.0,-999.0,70,-99.99,,,0.00,weatherlink.com 1.10,2013-01-08 18:31:00,
2013-01-08 13:46:00,38.2,28.0,30.36,ESE,109,0.0,-999.0,67,-99.99,,,0.00,weatherlink.com 1.10,2013-01-08 18:46:00,
2013-01-08 14:01:00,38.8,28.0,30.36,SSE,150,0.0,-999.0,66,-99.99,,,0.00,weatherlink.com 1.10,2013-01-08 19:01:00,
2013-01-08 14:16:00,38.8,27.0,30.36,SE,144,0.0,-999.0,63,-99.99,,,0.00,weatherlink.com 1.10,2013-01-08 19:16:00,
2013-01-08 14:31:00,39.2,29.0,30.36,SE,144,0.0,-999.0,66,-99.99,,,0.00,weatherlink.com 1.10,2013-01-08 19:31:00,
2013-01-08 14:46:00,39.4,27.0,30.36,SE,142,0.0,-999.0,62,-99.99,,,0.00,weatherlink.com 1.10,2013-01-08 19:46:00,
2013-01-08 15:01:00,39.8,28.0,30.36,SE,124,0.0,-999.0,63,-99.99,,,0.00,weatherlink.com 1.10,2013-01-08 20:01:00,
2013-01-08 15:16:00,40.1,28.0,30.37,ESE,123,0.0,-999.0,63,-99.99,,,0.00,weatherlink.com 1.10,2013-01-08 20:16:00,
2013-01-08 15:31:00,39.6,28.0,30.37,ESE,123,0.0,-999.0,63,-99.99,,,0.00,weatherlink.com 1.10,2013-01-08 20:31:00,
2013-01-08 15:46:00,39.9,29.0,30.37,ESE,123,0.0,-999.0,64,-99.99,,,0.00,weatherlink.com 1.10,2013-01-08 20:46:00,
2013-01-08 16:01:00,39.8,28.0,30.37,ESE,123,0.0,-999.0,62,-99.99,,,0.00,weatherlink.com 1.10,2013-01-08 21:01:00,
2013-01-08 16:16:00,38.4,27.0,30.38,ESE,122,0.0,-999.0,63,-99.99,,,0.00,weatherlink.com 1.10,2013-01-08 21:16:00,
2013-01-08 16:31:00,36.5,26.0,30.38,ESE,123,0.0,-999.0,66,-99.99,,,0.00,weatherlink.com 1.10,2013-01-08 21:31:00,
2013-01-08 16:46:00,34.7,26.0,30.38,ESE,123,0.0,-999.0,71,-99.99,,,0.00,weatherlink.com 1.10,2013-01-08 21:46:00,
2013-01-08 17:01:00,33.1,26.0,30.39,ESE,123,0.0,-999.0,75,-99.99,,,0.00,weatherlink.com 1.10,2013-01-08 22:01:00,
2013-01-08 17:16:00,31.5,25.0,30.40,ESE,123,0.0,-999.0,77,-99.99,,,0.00,weatherlink.com 1.10,2013-01-08 22:16:00,
2013-01-08 17:31:00,30.0,25.0,30.40,ESE,122,0.0,-999.0,81,-99.99,,,0.00,weatherlink.com 1.10,2013-01-08 22:31:00,
2013-01-08 17:46:00,29.2,24.0,30.40,ESE,122,0.0,-999.0,82,-99.99,,,0.00,weatherlink.com 1.10,2013-01-08 22:46:00,
2013-01-08 18:01:00,28.5,24.0,30.41,ESE,122,0.0,-999.0,84,-99.99,,,0.00,weatherlink.com 1.10,2013-01-08 23:01:00,
2013-01-08 18:16:00,27.9,24.0,30.41,ESE,123,0.0,-999.0,84,-99.99,,,0.00,weatherlink.com 1.10,2013-01-08 23:16:00,
2013-01-08 18:31:00,27.6,24.0,30.41,ESE,123,0.0,-999.0,85,-99.99,,,0.00,weatherlink.com 1.10,2013-01-08 23:31:00,
2013-01-08 18:46:00,27.2,24.0,30.41,ESE,123,0.0,-999.0,86,-99.99,,,0.00,weatherlink.com 1.10,2013-01-08 23:46:00,
2013-01-08 19:01:00,26.7,23.0,30.42,ESE,123,0.0,-999.0,86,-99.99,,,0.00,weatherlink.com 1.10,2013-01-09 00:01:00,
2013-01-08 19:16:00,26.4,23.0,30.42,SE,124,0.0,-999.0,87,-99.99,,,0.00,weatherlink.com 1.10,2013-01-09 00:16:00,
2013-01-08 19:31:00,26.0,23.0,30.43,ESE,122,0.0,-999.0,88,-99.99,,,0.00,weatherlink.com 1.10,2013-01-09 00:31:00,
2013-01-08 19:46:00,25.7,23.0,30.43,ESE,122,0.0,-999.0,88,-99.99,,,0.00,weatherlink.com 1.10,2013-01-09 00:46:00,
2013-01-08 20:01:00,25.5,23.0,30.43,ESE,123,0.0,-999.0,88,-99.99,,,0.00,weatherlink.com 1.10,2013-01-09 01:01:00,
2013-01-08 20:16:00,25.2,22.0,30.43,ESE,123,0.0,-999.0,88,-99.99,,,0.00,weatherlink.com 1.10,2013-01-09 01:16:00,
2013-01-08 20:31:00,24.8,22.0,30.43,ESE,123,0.0,-999.0,88,-99.99,,,0.00,weatherlink.com 1.10,2013-01-09 01:31:00,
2013-01-08 20:46:00,24.4,22.0,30.43,ESE,123,0.0,-999.0,89,-99.99,,,0.00,weatherlink.com 1.10,2013-01-09 01:46:00,
2013-01-08 21:01:00,24.0,21.0,30.43,ESE,123,0.0,-999.0,89,-99.99,,,0.00,weatherlink.com 1.10,2013-01-09 02:01:00,
2013-01-08 21:16:00,23.7,21.0,30.42,ESE,123,0.0,-999.0,89,-99.99,,,0.00,weatherlink.com 1.10,2013-01-09 02:16:00,
2013-01-08 21:31:00,23.8,21.0,30.42,ESE,123,0.0,-999.0,90,-99.99,,,0.00,weatherlink.com 1.10,2013-01-09 02:31:00,
2013-01-08 21:46:00,24.4,22.0,30.43,ESE,123,0.0,-999.0,89,-99.99,,,0.00,weatherlink.com 1.10,2013-01-09 02:46:00,
2013-01-08 22:01:00,24.6,22.0,30.43,ESE,123,0.0,-999.0,89,-99.99,,,0.00,weatherlink.com 1.10,2013-01-09 03:01:00,
2013-01-08 22:16:00,24.4,21.0,30.43,ESE,123,0.0,-999.0,88,-99.99,,,0.00,weatherlink.com 1.10,2013-01-09 03:16:00,
2013-01-08 22:31:00,24.4,22.0,30.43,ESE,123,0.0,-999.0,89,-99.99,,,0.00,weatherlink.com 1.10,2013-01-09 03:31:00,
2013-01-08 22:46:00,24.8,22.0,30.43,ESE,123,0.0,-999.0,89,-99.99,,,0.00,weatherlink.com 1.10,2013-01-09 03:46:00,
2013-01-08 23:01:00,25.1,22.0,30.44,ESE,123,0.0,-999.0,89,-99.99,,,0.00,weatherlink.com 1.10,2013-01-09 04:01:00,
2013-01-08 23:16:00,25.3,22.0,30.44,ESE,123,0.0,-999.0,88,-99.99,,,0.00,weatherlink.com 1.10,2013-01-09 04:16:00,
2013-01-08 23:31:00,25.7,23.0,30.44,ESE,123,0.0,-999.0,89,-99.99,,,0.00,weatherlink.com 1.10,2013-01-09 04:31:00,
2013-01-08 23:46:00,25.3,22.0,30.44,ESE,122,0.0,-999.0,88,-99.99,,,0.00,weatherlink.com 1.10,2013-01-09 04:46:00,